createdAt,value
2023-01-13T00:03:43.658Z,5.20
2023-01-13T00:08:56.311Z,4.55
2023-01-13T00:13:49.776Z,5.07
2023-01-13T00:18:43.982Z,4.45
2023-01-13T00:23:37.090Z,5.10
2023-01-13T00:28:30.625Z,5.00
2023-01-13T00:33:24.164Z,4.43
2023-01-13T00:38:17.739Z,4.30
2023-01-13T00:43:23.199Z,4.32
2023-01-13T00:48:18.671Z,4.22
2023-01-13T00:53:11.811Z,4.45
2023-01-13T00:58:06.014Z,4.13
2023-01-13T01:02:59.521Z,4.22
2023-01-13T01:07:53.938Z,4.22
2023-01-13T01:12:47.986Z,4.18
2023-01-13T01:17:41.909Z,3.70
2023-01-13T01:22:35.265Z,4.03
2023-01-13T01:27:28.927Z,3.60
2023-01-13T01:32:22.433Z,3.92
2023-01-13T01:37:16.689Z,4.15
2023-01-13T01:42:37.542Z,3.60
2023-01-13T01:47:32.795Z,3.70
2023-01-13T01:52:34.075Z,4.53
2023-01-13T01:57:50.393Z,3.75
2023-01-13T02:02:47.549Z,3.75
2023-01-13T02:07:44.236Z,3.30
2023-01-13T02:12:39.248Z,3.78
2023-01-13T02:17:51.943Z,3.90
2023-01-13T02:23:36.275Z,3.78
2023-01-13T02:29:18.607Z,3.40
2023-01-13T02:34:15.343Z,3.30
2023-01-13T02:39:16.846Z,3.53
2023-01-13T02:44:12.858Z,3.22
2023-01-13T02:49:11.801Z,3.22
2023-01-13T02:54:16.864Z,3.20
2023-01-13T02:59:11.901Z,3.53
2023-01-13T03:04:17.100Z,2.95
2023-01-13T03:09:10.412Z,2.83
2023-01-13T03:14:41.153Z,2.72
2023-01-13T03:19:45.696Z,2.80
2023-01-13T03:25:08.977Z,2.72
2023-01-13T03:30:20.996Z,3.10
2023-01-13T03:35:39.430Z,2.90
2023-01-13T03:40:41.039Z,2.88
2023-01-13T03:45:40.861Z,2.72
2023-01-13T03:50:42.201Z,2.95
2023-01-13T03:55:39.687Z,2.50
2023-01-13T04:00:46.057Z,2.80
2023-01-13T04:05:48.002Z,2.58
2023-01-13T04:10:54.373Z,2.60
2023-01-13T04:15:49.464Z,3.20
2023-01-13T04:20:44.241Z,2.58
2023-01-13T04:25:41.279Z,2.47
2023-01-13T04:30:34.526Z,2.70
2023-01-13T04:35:27.980Z,2.60
2023-01-13T04:40:21.831Z,2.55
2023-01-13T04:45:15.542Z,2.92
2023-01-13T04:50:12.478Z,2.72
2023-01-13T04:55:07.483Z,2.20
2023-01-13T05:00:00.702Z,2.53
2023-01-13T05:04:54.848Z,2.40
2023-01-13T05:09:51.107Z,2.58
2023-01-13T05:15:03.425Z,2.38
2023-01-13T05:19:57.480Z,2.30
2023-01-13T05:25:09.177Z,2.90
2023-01-13T05:30:04.092Z,5.90
2023-01-13T05:34:57.448Z,6.07
2023-01-13T05:40:09.529Z,5.78
2023-01-13T05:45:03.811Z,5.65
2023-01-13T05:49:57.233Z,6.35
2023-01-13T05:54:51.125Z,5.85
2023-01-13T05:59:45.294Z,5.75
2023-01-13T06:04:38.183Z,5.50
2023-01-13T06:09:31.533Z,4.65
2023-01-13T06:14:24.365Z,5.55
2023-01-13T06:19:18.412Z,4.60
2023-01-13T06:24:12.310Z,5.03
2023-01-13T06:29:05.941Z,4.45
2023-01-13T06:34:05.321Z,4.20
2023-01-13T06:39:02.480Z,4.05
2023-01-13T06:43:55.803Z,3.45
2023-01-13T06:48:49.919Z,3.78
2023-01-13T06:53:43.987Z,2.83
2023-01-13T06:58:37.351Z,2.70
2023-01-13T07:03:31.173Z,2.92
2023-01-13T07:08:26.005Z,2.72
2023-01-13T07:13:37.670Z,2.88
2023-01-13T07:18:32.683Z,2.83
2023-01-13T07:23:28.713Z,2.90
2023-01-13T07:28:22.317Z,2.50
2023-01-13T07:33:16.810Z,2.30
2023-01-13T07:38:10.921Z,2.53
2023-01-13T07:43:22.516Z,2.72
2023-01-13T07:48:15.672Z,2.95
2023-01-13T07:53:08.724Z,2.78
2023-01-13T07:58:02.409Z,2.65
2023-01-13T08:02:55.647Z,2.55
2023-01-13T08:07:49.260Z,2.65
2023-01-13T08:13:01.329Z,2.30
2023-01-13T08:17:54.857Z,2.58
2023-01-13T08:22:48.588Z,2.53
2023-01-13T08:27:42.084Z,2.05
2023-01-13T08:32:36.344Z,2.20
2023-01-13T08:37:30.135Z,2.25
2023-01-13T08:42:24.000Z,2.38
2023-01-13T08:47:17.263Z,2.53
2023-01-13T08:52:10.579Z,2.50
2023-01-13T08:57:03.909Z,1.90
2023-01-13T09:01:57.481Z,2.00
2023-01-13T09:06:50.695Z,2.20
2023-01-13T09:12:05.357Z,2.15
2023-01-13T09:16:59.204Z,2.30
2023-01-13T09:21:53.323Z,2.35
2023-01-13T09:26:47.015Z,2.15
2023-01-13T09:31:41.271Z,2.20
2023-01-13T09:36:35.536Z,2.28
2023-01-13T09:41:50.221Z,2.47
2023-01-13T09:46:53.015Z,2.40
2023-01-13T09:52:08.036Z,2.72
2023-01-13T09:57:01.941Z,2.95
2023-01-13T10:02:03.338Z,2.85
2023-01-13T10:07:02.157Z,2.90
2023-01-13T10:12:17.524Z,3.00
2023-01-13T10:17:39.745Z,3.72
2023-01-13T10:22:49.938Z,3.33
2023-01-13T10:28:04.647Z,4.10
2023-01-13T10:33:28.769Z,4.85
2023-01-13T10:38:45.618Z,6.07
2023-01-13T10:43:39.858Z,6.65
2023-01-13T10:48:44.066Z,7.90
2023-01-13T10:53:47.008Z,6.82
2023-01-13T10:59:18.908Z,6.60
2023-01-13T11:04:54.773Z,6.75
2023-01-13T11:09:48.791Z,6.75
2023-01-13T11:14:45.800Z,6.78
2023-01-13T11:19:44.221Z,6.80
2023-01-13T11:24:48.395Z,7.05
2023-01-13T11:30:00.281Z,7.60
2023-01-13T11:35:00.172Z,7.38
2023-01-13T11:40:04.361Z,7.65
2023-01-13T11:45:03.690Z,7.00
2023-01-13T11:49:57.675Z,7.20
2023-01-13T11:55:01.194Z,7.13
2023-01-13T12:00:21.233Z,6.70
2023-01-13T12:05:30.074Z,6.65
2023-01-13T12:10:36.021Z,6.60
2023-01-13T12:16:00.256Z,7.20
2023-01-13T12:21:06.330Z,6.28
2023-01-13T12:26:07.632Z,6.07
2023-01-13T12:31:03.250Z,6.72
2023-01-13T12:36:25.779Z,5.63
2023-01-13T12:41:37.467Z,5.70
2023-01-13T12:46:30.426Z,5.22
2023-01-13T12:51:41.013Z,5.88
2023-01-13T12:56:42.737Z,5.20
2023-01-13T13:01:38.010Z,5.20
2023-01-13T13:06:32.282Z,5.07
2023-01-13T13:12:03.605Z,5.28
2023-01-13T13:16:57.692Z,5.53
2023-01-13T13:22:12.253Z,6.60
2023-01-13T13:27:19.292Z,6.88
2023-01-13T13:32:26.887Z,6.30
2023-01-13T13:38:17.173Z,6.10
2023-01-13T13:43:32.965Z,5.50
2023-01-13T13:48:34.347Z,4.95
2023-01-13T13:53:32.308Z,5.38
2023-01-13T13:58:26.785Z,5.18
2023-01-13T14:03:29.837Z,5.28
2023-01-13T14:08:24.020Z,5.43
2023-01-13T14:13:21.613Z,4.30
2023-01-13T14:18:22.568Z,4.82
2023-01-13T14:23:20.738Z,5.20
2023-01-13T14:28:13.947Z,4.95
2023-01-13T14:33:27.069Z,4.45
2023-01-13T14:38:40.294Z,5.03
2023-01-13T14:43:34.185Z,4.47
2023-01-13T14:48:36.589Z,4.50
2023-01-13T14:54:00.044Z,4.63
2023-01-13T14:59:03.397Z,3.78
2023-01-13T15:04:18.042Z,4.38
2023-01-13T15:09:14.578Z,4.15
2023-01-13T15:14:12.019Z,3.85
2023-01-13T15:19:05.380Z,4.03
2023-01-13T15:24:00.616Z,4.10
2023-01-13T15:28:56.236Z,4.63
2023-01-13T15:33:49.970Z,4.18
2023-01-13T15:38:43.064Z,3.95
2023-01-13T15:43:55.232Z,4.10
2023-01-13T15:48:53.079Z,4.47
2023-01-13T15:53:48.334Z,4.43
2023-01-13T15:58:42.500Z,4.65
2023-01-13T16:03:36.316Z,4.63
2023-01-13T16:08:31.795Z,4.30
2023-01-13T16:13:25.305Z,4.57
2023-01-13T16:18:22.792Z,4.38
2023-01-13T16:23:16.777Z,4.22
2023-01-13T16:28:24.794Z,4.45
2023-01-13T16:33:18.132Z,4.00
2023-01-13T16:38:18.760Z,4.35
2023-01-13T16:43:15.853Z,4.45
2023-01-13T16:48:20.191Z,3.83
2023-01-13T16:53:13.265Z,4.53
2023-01-13T16:58:08.005Z,4.43
2023-01-13T17:03:03.369Z,4.78
2023-01-13T17:07:57.797Z,4.40
2023-01-13T17:12:50.961Z,4.30
2023-01-13T17:17:48.201Z,5.53
2023-01-13T17:22:45.653Z,5.20
2023-01-13T17:27:41.859Z,4.90
2023-01-13T17:32:35.884Z,5.15
2023-01-13T17:37:30.058Z,5.55
2023-01-13T17:42:24.121Z,5.30
2023-01-13T17:47:18.596Z,6.28
2023-01-13T17:52:12.409Z,6.65
2023-01-13T17:57:05.625Z,6.43
2023-01-13T18:02:00.171Z,6.30
2023-01-13T18:06:53.847Z,5.90
2023-01-13T18:11:47.489Z,6.40
2023-01-13T18:16:41.312Z,6.55
2023-01-13T18:21:52.504Z,6.95
2023-01-13T18:27:04.006Z,6.88
2023-01-13T18:31:58.183Z,7.15
2023-01-13T18:36:50.991Z,6.47
2023-01-13T18:42:02.571Z,6.30
2023-01-13T18:46:55.675Z,5.72
2023-01-13T18:51:50.041Z,9.65
2023-01-13T18:56:44.104Z,16.05
2023-01-13T19:01:38.485Z,20.45
2023-01-13T19:06:33.871Z,21.13
2023-01-13T19:11:27.491Z,20.30
2023-01-13T19:16:24.619Z,19.20
2023-01-13T19:21:18.571Z,17.58
2023-01-13T19:26:13.154Z,16.00
2023-01-13T19:31:07.783Z,15.65
2023-01-13T19:36:02.069Z,14.15
2023-01-13T19:41:03.952Z,14.48
2023-01-13T19:45:57.708Z,12.88
2023-01-13T19:50:50.963Z,12.15
2023-01-13T19:55:46.476Z,11.90
2023-01-13T20:00:47.557Z,12.45
2023-01-13T20:05:40.983Z,12.95
2023-01-13T20:10:34.877Z,10.73
2023-01-13T20:15:29.104Z,12.60
2023-01-13T20:20:22.604Z,11.88
2023-01-13T20:25:18.065Z,11.80
2023-01-13T20:30:14.689Z,11.00
2023-01-13T20:35:26.990Z,11.40
2023-01-13T20:40:21.053Z,11.35
2023-01-13T20:45:21.590Z,11.10
2023-01-13T20:50:17.381Z,10.40
2023-01-13T20:55:11.103Z,9.82
2023-01-13T21:00:05.807Z,10.32
2023-01-13T21:04:59.942Z,10.20
2023-01-13T21:09:53.583Z,10.43
2023-01-13T21:15:04.553Z,10.13
2023-01-13T21:19:58.586Z,9.32
2023-01-13T21:24:52.876Z,9.95
2023-01-13T21:29:46.955Z,8.70
2023-01-13T21:34:40.948Z,9.05
2023-01-13T21:39:34.899Z,9.35
2023-01-13T21:44:45.451Z,9.13
2023-01-13T21:54:58.116Z,8.55
2023-01-13T21:59:51.467Z,7.35
2023-01-13T22:04:53.064Z,9.00
2023-01-13T22:09:47.145Z,8.07
2023-01-13T22:14:41.373Z,8.25
2023-01-13T22:19:39.592Z,8.30
2023-01-13T22:24:32.909Z,8.07
2023-01-13T22:29:25.830Z,7.72
2023-01-13T22:34:19.789Z,8.13
2023-01-13T22:39:13.564Z,7.57
2023-01-13T22:44:07.338Z,7.60
2023-01-13T22:49:00.779Z,7.72
2023-01-13T22:53:55.084Z,7.63
2023-01-13T22:58:49.544Z,7.82
2023-01-13T23:03:43.070Z,7.28
2023-01-13T23:08:36.635Z,7.13
2023-01-13T23:13:29.869Z,6.65
2023-01-13T23:18:26.480Z,7.30
2023-01-13T23:23:21.031Z,7.32
2023-01-13T23:28:14.796Z,7.30
2023-01-13T23:33:08.032Z,6.50
2023-01-13T23:38:01.951Z,5.95
2023-01-13T23:42:55.685Z,6.97
2023-01-13T23:47:48.816Z,6.35
2023-01-13T23:52:41.810Z,6.25
2023-01-13T23:57:35.711Z,5.93
